KCQC

Clines Corners Airport

Clines Corner, New Mexico, USA
METAR KCQC 190853Z AUTO 23014KT 10SM CLR 17/09 A3016 RMK AO2 SLP095 T01720094 56005
Observed Flight Rules
Sep-19 @ 08:53 UTC (11 minutes ago) Visual Flight Rules
Wind Visibility Clouds
230° at 14 knots 10 miles
  • Clear skies
Temperatures Readings
Current 17°C / 63°F
Dewpoint 9°C / 48°F
Humidity 59%
Altimeter 30.16" Hg
Pressure 1009.5 hPa
Elevation 2160
METAR KCQC 190853Z AUTO 23014KT 10SM CLR 17/09 A3016 RMK AO2 SLP095 T01720094 56005
Observed Flight Rules
Sep-19 @ 08:53 UTC
(11 minutes ago)
VFR
Wind Visibility
230° at 14 knots 10 miles
Clouds
  • Clear skies
Temperature Dewpoint
17°C / 63°F 9°C / 48°F
Humidity Altimeter Pressure
59% 30.16" Hg 1009.5 hPa